sensor_id;sensor_type;location;lat;lon;timestamp;temperature;humidity
18456;DHT22;9357;49.900;8.208;2023-04-30T00:01:19;12.20;99.90
18456;DHT22;9357;49.900;8.208;2023-04-30T00:02:52;12.20;99.90
18456;DHT22;9357;49.900;8.208;2023-04-30T00:04:25;12.20;99.90
18456;DHT22;9357;49.900;8.208;2023-04-30T00:05:58;12.20;99.90
18456;DHT22;9357;49.900;8.208;2023-04-30T00:07:30;12.20;99.90
18456;DHT22;9357;49.900;8.208;2023-04-30T00:09:03;12.20;99.90
18456;DHT22;9357;49.900;8.208;2023-04-30T00:10:35;12.20;99.90
18456;DHT22;9357;49.900;8.208;2023-04-30T00:12:08;12.20;99.90
18456;DHT22;9357;49.900;8.208;2023-04-30T00:13:41;12.20;99.90
18456;DHT22;9357;49.900;8.208;2023-04-30T00:15:22;12.20;99.90
18456;DHT22;9357;49.900;8.208;2023-04-30T00:16:56;12.10;99.90
18456;DHT22;9357;49.900;8.208;2023-04-30T00:18:29;12.10;99.90
18456;DHT22;9357;49.900;8.208;2023-04-30T00:20:01;12.10;99.90
18456;DHT22;9357;49.900;8.208;2023-04-30T00:21:34;12.10;99.90
18456;DHT22;9357;49.900;8.208;2023-04-30T00:23:10;12.10;99.90
18456;DHT22;9357;49.900;8.208;2023-04-30T00:24:43;12.10;99.90
18456;DHT22;9357;49.900;8.208;2023-04-30T00:26:14;12.10;99.90
18456;DHT22;9357;49.900;8.208;2023-04-30T00:27:47;12.10;99.90
18456;DHT22;9357;49.900;8.208;2023-04-30T00:29:20;12.10;99.90
18456;DHT22;9357;49.900;8.208;2023-04-30T00:30:52;12.00;99.90
18456;DHT22;9357;49.900;8.208;2023-04-30T00:32:26;12.00;99.90
18456;DHT22;9357;49.900;8.208;2023-04-30T00:33:59;12.00;99.90
18456;DHT22;9357;49.900;8.208;2023-04-30T00:35:32;12.00;99.90
18456;DHT22;9357;49.900;8.208;2023-04-30T00:37:04;12.00;99.90
18456;DHT22;9357;49.900;8.208;2023-04-30T00:38:37;11.90;99.90
18456;DHT22;9357;49.900;8.208;2023-04-30T00:40:11;12.00;99.90
18456;DHT22;9357;49.900;8.208;2023-04-30T00:41:44;12.00;99.90
18456;DHT22;9357;49.900;8.208;2023-04-30T00:43:17;12.00;99.90
18456;DHT22;9357;49.900;8.208;2023-04-30T00:44:50;11.90;99.90
18456;DHT22;9357;49.900;8.208;2023-04-30T00:46:22;11.90;99.90
18456;DHT22;9357;49.900;8.208;2023-04-30T00:47:56;11.90;99.90
18456;DHT22;9357;49.900;8.208;2023-04-30T00:49:28;11.90;99.90
18456;DHT22;9357;49.900;8.208;2023-04-30T00:51:02;11.90;99.90
18456;DHT22;9357;49.900;8.208;2023-04-30T00:52:35;11.90;99.90
18456;DHT22;9357;49.900;8.208;2023-04-30T00:54:07;11.90;99.90
18456;DHT22;9357;49.900;8.208;2023-04-30T00:55:40;11.90;99.90
18456;DHT22;9357;49.900;8.208;2023-04-30T00:57:14;11.90;99.90
18456;DHT22;9357;49.900;8.208;2023-04-30T00:58:48;11.90;99.90
18456;DHT22;9357;49.900;8.208;2023-04-30T01:00:22;11.90;99.90
18456;DHT22;9357;49.900;8.208;2023-04-30T01:01:54;11.80;99.90
18456;DHT22;9357;49.900;8.208;2023-04-30T01:03:29;11.90;99.90
18456;DHT22;9357;49.900;8.208;2023-04-30T01:05:01;11.80;99.90
18456;DHT22;9357;49.900;8.208;2023-04-30T01:06:34;11.90;99.90
18456;DHT22;9357;49.900;8.208;2023-04-30T01:08:07;11.90;99.90
18456;DHT22;9357;49.900;8.208;2023-04-30T01:09:40;11.80;99.90
18456;DHT22;9357;49.900;8.208;2023-04-30T01:11:24;11.80;99.90
18456;DHT22;9357;49.900;8.208;2023-04-30T01:13:03;11.80;99.90
18456;DHT22;9357;49.900;8.208;2023-04-30T01:14:47;11.80;99.90
18456;DHT22;9357;49.900;8.208;2023-04-30T01:16:26;11.80;99.90
18456;DHT22;9357;49.900;8.208;2023-04-30T01:18:04;11.80;99.90
18456;DHT22;9357;49.900;8.208;2023-04-30T01:19:41;11.80;99.90
18456;DHT22;9357;49.900;8.208;2023-04-30T01:21:15;11.80;99.90
18456;DHT22;9357;49.900;8.208;2023-04-30T01:22:51;11.80;99.90
18456;DHT22;9357;49.900;8.208;2023-04-30T01:24:46;11.70;99.90
18456;DHT22;9357;49.900;8.208;2023-04-30T01:26:32;11.70;99.90
18456;DHT22;9357;49.900;8.208;2023-04-30T01:28:13;11.70;99.90
18456;DHT22;9357;49.900;8.208;2023-04-30T01:29:47;11.70;99.90
18456;DHT22;9357;49.900;8.208;2023-04-30T01:31:23;11.70;99.90
18456;DHT22;9357;49.900;8.208;2023-04-30T01:32:56;11.70;99.90
18456;DHT22;9357;49.900;8.208;2023-04-30T01:34:29;11.60;99.90
18456;DHT22;9357;49.900;8.208;2023-04-30T01:36:18;11.60;99.90
18456;DHT22;9357;49.900;8.208;2023-04-30T01:37:59;11.60;99.90
18456;DHT22;9357;49.900;8.208;2023-04-30T01:39:55;11.60;99.90
18456;DHT22;9357;49.900;8.208;2023-04-30T01:41:32;11.60;99.90
18456;DHT22;9357;49.900;8.208;2023-04-30T01:43:15;11.60;99.90
18456;DHT22;9357;49.900;8.208;2023-04-30T01:45:02;11.50;99.90
18456;DHT22;9357;49.900;8.208;2023-04-30T01:46:36;11.60;99.90
18456;DHT22;9357;49.900;8.208;2023-04-30T01:48:18;11.60;99.90
18456;DHT22;9357;49.900;8.208;2023-04-30T01:50:11;11.60;99.90
18456;DHT22;9357;49.900;8.208;2023-04-30T01:51:47;11.50;99.90
18456;DHT22;9357;49.900;8.208;2023-04-30T01:53:32;11.50;99.90
18456;DHT22;9357;49.900;8.208;2023-04-30T01:55:11;11.50;99.90
18456;DHT22;9357;49.900;8.208;2023-04-30T01:57:01;11.50;99.90
18456;DHT22;9357;49.900;8.208;2023-04-30T01:58:36;11.50;99.90
18456;DHT22;9357;49.900;8.208;2023-04-30T02:00:10;11.50;99.90
18456;DHT22;9357;49.900;8.208;2023-04-30T02:01:45;11.50;99.90
18456;DHT22;9357;49.900;8.208;2023-04-30T02:03:18;11.60;99.90
18456;DHT22;9357;49.900;8.208;2023-04-30T02:04:51;11.50;99.90
18456;DHT22;9357;49.900;8.208;2023-04-30T02:06:24;11.50;99.90
18456;DHT22;9357;49.900;8.208;2023-04-30T02:07:59;11.50;99.90
18456;DHT22;9357;49.900;8.208;2023-04-30T02:09:32;11.50;99.90
18456;DHT22;9357;49.900;8.208;2023-04-30T02:11:04;11.40;99.90
18456;DHT22;9357;49.900;8.208;2023-04-30T02:12:36;11.40;99.90
18456;DHT22;9357;49.900;8.208;2023-04-30T02:14:10;11.40;99.90
18456;DHT22;9357;49.900;8.208;2023-04-30T02:15:43;11.40;99.90
18456;DHT22;9357;49.900;8.208;2023-04-30T02:17:15;11.40;99.90
18456;DHT22;9357;49.900;8.208;2023-04-30T02:18:47;11.40;99.90
18456;DHT22;9357;49.900;8.208;2023-04-30T02:20:20;11.40;99.90
18456;DHT22;9357;49.900;8.208;2023-04-30T02:21:53;11.40;99.90
18456;DHT22;9357;49.900;8.208;2023-04-30T02:23:26;11.40;99.90
18456;DHT22;9357;49.900;8.208;2023-04-30T02:24:58;11.40;99.90
18456;DHT22;9357;49.900;8.208;2023-04-30T02:26:30;11.40;99.90
18456;DHT22;9357;49.900;8.208;2023-04-30T02:28:03;11.40;99.90
18456;DHT22;9357;49.900;8.208;2023-04-30T02:29:38;11.40;99.90
18456;DHT22;9357;49.900;8.208;2023-04-30T02:31:09;11.40;99.90
18456;DHT22;9357;49.900;8.208;2023-04-30T02:32:42;11.40;99.90
18456;DHT22;9357;49.900;8.208;2023-04-30T02:34:15;11.40;99.90
18456;DHT22;9357;49.900;8.208;2023-04-30T02:35:47;11.40;99.90
18456;DHT22;9357;49.900;8.208;2023-04-30T02:37:19;11.30;99.90
18456;DHT22;9357;49.900;8.208;2023-04-30T02:38:53;11.40;99.90
18456;DHT22;9357;49.900;8.208;2023-04-30T02:40:24;11.40;99.90
18456;DHT22;9357;49.900;8.208;2023-04-30T02:41:57;11.40;99.90
18456;DHT22;9357;49.900;8.208;2023-04-30T02:43:29;11.40;99.90
18456;DHT22;9357;49.900;8.208;2023-04-30T02:45:04;11.40;99.90
18456;DHT22;9357;49.900;8.208;2023-04-30T02:46:37;11.40;99.90
18456;DHT22;9357;49.900;8.208;2023-04-30T02:48:08;11.40;99.90
18456;DHT22;9357;49.900;8.208;2023-04-30T02:49:41;11.40;99.90
18456;DHT22;9357;49.900;8.208;2023-04-30T02:51:14;11.30;99.90
18456;DHT22;9357;49.900;8.208;2023-04-30T02:52:46;11.30;99.90
18456;DHT22;9357;49.900;8.208;2023-04-30T02:54:19;11.30;99.90
18456;DHT22;9357;49.900;8.208;2023-04-30T02:55:52;11.30;99.90
18456;DHT22;9357;49.900;8.208;2023-04-30T02:57:24;11.30;99.90
18456;DHT22;9357;49.900;8.208;2023-04-30T02:58:57;11.40;99.90
18456;DHT22;9357;49.900;8.208;2023-04-30T03:00:31;11.40;99.90
18456;DHT22;9357;49.900;8.208;2023-04-30T03:02:04;11.40;99.90
18456;DHT22;9357;49.900;8.208;2023-04-30T03:03:37;11.30;99.90
18456;DHT22;9357;49.900;8.208;2023-04-30T03:05:10;11.30;99.90
18456;DHT22;9357;49.900;8.208;2023-04-30T03:06:41;11.30;99.90
18456;DHT22;9357;49.900;8.208;2023-04-30T03:08:14;11.30;99.90
18456;DHT22;9357;49.900;8.208;2023-04-30T03:09:47;11.30;99.90
18456;DHT22;9357;49.900;8.208;2023-04-30T03:11:20;11.30;99.90
18456;DHT22;9357;49.900;8.208;2023-04-30T03:12:52;11.30;99.90
18456;DHT22;9357;49.900;8.208;2023-04-30T03:14:25;11.30;99.90
18456;DHT22;9357;49.900;8.208;2023-04-30T03:16:00;11.30;99.90
18456;DHT22;9357;49.900;8.208;2023-04-30T03:17:35;11.30;99.90
18456;DHT22;9357;49.900;8.208;2023-04-30T03:19:06;11.30;99.90
18456;DHT22;9357;49.900;8.208;2023-04-30T03:20:39;11.30;99.90
18456;DHT22;9357;49.900;8.208;2023-04-30T03:22:12;11.30;99.90
18456;DHT22;9357;49.900;8.208;2023-04-30T03:23:45;11.30;99.90
18456;DHT22;9357;49.900;8.208;2023-04-30T03:25:18;11.20;99.90
18456;DHT22;9357;49.900;8.208;2023-04-30T03:26:51;11.30;99.90
18456;DHT22;9357;49.900;8.208;2023-04-30T03:28:23;11.20;99.90
18456;DHT22;9357;49.900;8.208;2023-04-30T03:29:56;11.20;99.90
18456;DHT22;9357;49.900;8.208;2023-04-30T03:31:30;11.20;99.90
18456;DHT22;9357;49.900;8.208;2023-04-30T03:33:03;11.20;99.90
18456;DHT22;9357;49.900;8.208;2023-04-30T03:34:37;11.20;99.90
18456;DHT22;9357;49.900;8.208;2023-04-30T03:36:10;11.20;99.90
18456;DHT22;9357;49.900;8.208;2023-04-30T03:37:43;11.20;99.90
18456;DHT22;9357;49.900;8.208;2023-04-30T03:39:15;11.20;99.90
18456;DHT22;9357;49.900;8.208;2023-04-30T03:40:48;11.20;99.90
18456;DHT22;9357;49.900;8.208;2023-04-30T03:42:20;11.10;99.90
18456;DHT22;9357;49.900;8.208;2023-04-30T03:43:53;11.20;99.90
18456;DHT22;9357;49.900;8.208;2023-04-30T03:45:25;11.10;99.90
18456;DHT22;9357;49.900;8.208;2023-04-30T03:46:59;11.10;99.90
18456;DHT22;9357;49.900;8.208;2023-04-30T03:48:31;11.10;99.90
18456;DHT22;9357;49.900;8.208;2023-04-30T03:50:05;11.10;99.90
18456;DHT22;9357;49.900;8.208;2023-04-30T03:51:37;11.00;99.90
18456;DHT22;9357;49.900;8.208;2023-04-30T03:53:12;11.00;99.90
18456;DHT22;9357;49.900;8.208;2023-04-30T03:54:44;11.10;99.90
18456;DHT22;9357;49.900;8.208;2023-04-30T03:56:16;11.10;99.90
18456;DHT22;9357;49.900;8.208;2023-04-30T03:57:50;11.00;99.90
18456;DHT22;9357;49.900;8.208;2023-04-30T03:59:22;11.10;99.90
18456;DHT22;9357;49.900;8.208;2023-04-30T04:00:55;11.00;99.90
18456;DHT22;9357;49.900;8.208;2023-04-30T04:02:30;11.10;99.90
18456;DHT22;9357;49.900;8.208;2023-04-30T04:04:03;11.00;99.90
18456;DHT22;9357;49.900;8.208;2023-04-30T04:05:36;11.00;99.90
18456;DHT22;9357;49.900;8.208;2023-04-30T04:07:09;11.00;99.90
18456;DHT22;9357;49.900;8.208;2023-04-30T04:08:42;11.00;99.90
18456;DHT22;9357;49.900;8.208;2023-04-30T04:10:15;11.00;99.90
18456;DHT22;9357;49.900;8.208;2023-04-30T04:11:48;10.90;99.90
18456;DHT22;9357;49.900;8.208;2023-04-30T04:13:20;10.90;99.90
18456;DHT22;9357;49.900;8.208;2023-04-30T04:14:54;10.90;99.90
18456;DHT22;9357;49.900;8.208;2023-04-30T04:16:26;10.90;99.90
18456;DHT22;9357;49.900;8.208;2023-04-30T04:18:00;10.90;99.90
18456;DHT22;9357;49.900;8.208;2023-04-30T04:19:33;10.90;99.90
18456;DHT22;9357;49.900;8.208;2023-04-30T04:21:06;10.90;99.90
18456;DHT22;9357;49.900;8.208;2023-04-30T04:22:39;10.80;99.90
18456;DHT22;9357;49.900;8.208;2023-04-30T04:24:12;10.90;99.90
18456;DHT22;9357;49.900;8.208;2023-04-30T04:25:44;10.90;99.90
18456;DHT22;9357;49.900;8.208;2023-04-30T04:27:20;10.80;99.90
18456;DHT22;9357;49.900;8.208;2023-04-30T04:28:52;10.80;99.90
18456;DHT22;9357;49.900;8.208;2023-04-30T04:30:25;10.80;99.90
18456;DHT22;9357;49.900;8.208;2023-04-30T04:31:58;10.80;99.90
18456;DHT22;9357;49.900;8.208;2023-04-30T04:33:34;10.80;99.90
18456;DHT22;9357;49.900;8.208;2023-04-30T04:35:07;10.80;99.90
18456;DHT22;9357;49.900;8.208;2023-04-30T04:36:40;10.80;99.90
18456;DHT22;9357;49.900;8.208;2023-04-30T04:38:13;10.80;99.90
18456;DHT22;9357;49.900;8.208;2023-04-30T04:39:46;10.80;99.90
18456;DHT22;9357;49.900;8.208;2023-04-30T04:41:18;10.80;99.90
18456;DHT22;9357;49.900;8.208;2023-04-30T04:42:51;10.80;99.90
18456;DHT22;9357;49.900;8.208;2023-04-30T04:44:24;10.80;99.90
18456;DHT22;9357;49.900;8.208;2023-04-30T04:45:57;10.70;99.90
18456;DHT22;9357;49.900;8.208;2023-04-30T04:47:30;10.70;99.90
18456;DHT22;9357;49.900;8.208;2023-04-30T04:49:04;10.70;99.90
18456;DHT22;9357;49.900;8.208;2023-04-30T04:50:37;10.80;99.90
18456;DHT22;9357;49.900;8.208;2023-04-30T04:52:10;10.70;99.90
18456;DHT22;9357;49.900;8.208;2023-04-30T04:53:42;10.70;99.90
18456;DHT22;9357;49.900;8.208;2023-04-30T04:55:14;10.70;99.90
18456;DHT22;9357;49.900;8.208;2023-04-30T04:56:47;10.70;99.90
18456;DHT22;9357;49.900;8.208;2023-04-30T04:58:20;10.70;99.90
18456;DHT22;9357;49.900;8.208;2023-04-30T04:59:52;10.70;99.90
18456;DHT22;9357;49.900;8.208;2023-04-30T05:01:26;10.70;99.90
18456;DHT22;9357;49.900;8.208;2023-04-30T05:03:00;10.70;99.90
18456;DHT22;9357;49.900;8.208;2023-04-30T05:04:34;10.70;99.90
18456;DHT22;9357;49.900;8.208;2023-04-30T05:06:05;10.70;99.90
18456;DHT22;9357;49.900;8.208;2023-04-30T05:07:38;10.70;99.90
18456;DHT22;9357;49.900;8.208;2023-04-30T05:09:11;10.70;99.90
18456;DHT22;9357;49.900;8.208;2023-04-30T05:10:44;10.80;99.90
18456;DHT22;9357;49.900;8.208;2023-04-30T05:12:17;10.80;99.90
18456;DHT22;9357;49.900;8.208;2023-04-30T05:13:49;10.70;99.90
18456;DHT22;9357;49.900;8.208;2023-04-30T05:15:22;10.70;99.90
18456;DHT22;9357;49.900;8.208;2023-04-30T05:16:55;10.70;99.90
18456;DHT22;9357;49.900;8.208;2023-04-30T05:18:28;10.80;99.90
18456;DHT22;9357;49.900;8.208;2023-04-30T05:20:01;10.80;99.90
18456;DHT22;9357;49.900;8.208;2023-04-30T05:21:34;10.70;99.90
18456;DHT22;9357;49.900;8.208;2023-04-30T05:23:06;10.70;99.90
18456;DHT22;9357;49.900;8.208;2023-04-30T05:24:38;10.70;99.90
18456;DHT22;9357;49.900;8.208;2023-04-30T05:26:11;10.70;99.90
18456;DHT22;9357;49.900;8.208;2023-04-30T05:27:44;10.70;99.90
18456;DHT22;9357;49.900;8.208;2023-04-30T05:29:16;10.80;99.90
18456;DHT22;9357;49.900;8.208;2023-04-30T05:30:49;10.70;99.90
18456;DHT22;9357;49.900;8.208;2023-04-30T05:32:22;10.70;99.90
18456;DHT22;9357;49.900;8.208;2023-04-30T05:33:55;10.70;99.90
18456;DHT22;9357;49.900;8.208;2023-04-30T05:35:29;10.80;99.90
18456;DHT22;9357;49.900;8.208;2023-04-30T05:37:02;10.80;99.90
18456;DHT22;9357;49.900;8.208;2023-04-30T05:38:35;10.80;99.90
18456;DHT22;9357;49.900;8.208;2023-04-30T05:40:08;10.80;99.90
18456;DHT22;9357;49.900;8.208;2023-04-30T05:41:41;10.90;99.90
18456;DHT22;9357;49.900;8.208;2023-04-30T05:43:14;10.90;99.90
18456;DHT22;9357;49.900;8.208;2023-04-30T05:44:47;10.90;99.90
18456;DHT22;9357;49.900;8.208;2023-04-30T05:46:20;10.80;99.90
18456;DHT22;9357;49.900;8.208;2023-04-30T05:47:52;10.90;99.90
18456;DHT22;9357;49.900;8.208;2023-04-30T05:49:26;10.90;99.90
18456;DHT22;9357;49.900;8.208;2023-04-30T05:51:00;10.90;99.90
18456;DHT22;9357;49.900;8.208;2023-04-30T05:52:33;11.00;99.90
18456;DHT22;9357;49.900;8.208;2023-04-30T05:54:05;11.00;99.90
18456;DHT22;9357;49.900;8.208;2023-04-30T05:55:38;11.00;99.90
18456;DHT22;9357;49.900;8.208;2023-04-30T05:57:11;11.00;99.90
18456;DHT22;9357;49.900;8.208;2023-04-30T05:58:43;11.10;99.90
18456;DHT22;9357;49.900;8.208;2023-04-30T06:00:16;11.00;99.90
18456;DHT22;9357;49.900;8.208;2023-04-30T06:01:49;11.10;99.90
18456;DHT22;9357;49.900;8.208;2023-04-30T06:03:22;11.10;99.90
18456;DHT22;9357;49.900;8.208;2023-04-30T06:04:54;11.20;99.90
18456;DHT22;9357;49.900;8.208;2023-04-30T06:06:28;11.20;99.90
18456;DHT22;9357;49.900;8.208;2023-04-30T06:08:02;11.20;99.90
18456;DHT22;9357;49.900;8.208;2023-04-30T06:09:35;11.20;99.90
18456;DHT22;9357;49.900;8.208;2023-04-30T06:11:07;11.30;99.90
18456;DHT22;9357;49.900;8.208;2023-04-30T06:12:40;11.30;99.90
18456;DHT22;9357;49.900;8.208;2023-04-30T06:14:13;11.30;99.90
18456;DHT22;9357;49.900;8.208;2023-04-30T06:15:46;11.30;99.90
18456;DHT22;9357;49.900;8.208;2023-04-30T06:17:19;11.30;99.90
18456;DHT22;9357;49.900;8.208;2023-04-30T06:18:51;11.40;99.90
18456;DHT22;9357;49.900;8.208;2023-04-30T06:20:24;11.40;99.90
18456;DHT22;9357;49.900;8.208;2023-04-30T06:21:59;11.40;99.90
18456;DHT22;9357;49.900;8.208;2023-04-30T06:23:32;11.30;99.90
18456;DHT22;9357;49.900;8.208;2023-04-30T06:25:07;11.50;99.90
18456;DHT22;9357;49.900;8.208;2023-04-30T06:26:40;11.40;99.90
18456;DHT22;9357;49.900;8.208;2023-04-30T06:28:12;11.40;99.90
18456;DHT22;9357;49.900;8.208;2023-04-30T06:29:45;11.50;99.90
18456;DHT22;9357;49.900;8.208;2023-04-30T06:31:18;11.50;99.90
18456;DHT22;9357;49.900;8.208;2023-04-30T06:32:50;11.50;99.90
18456;DHT22;9357;49.900;8.208;2023-04-30T06:34:23;11.50;99.90
18456;DHT22;9357;49.900;8.208;2023-04-30T06:35:57;11.60;99.90
18456;DHT22;9357;49.900;8.208;2023-04-30T06:37:31;11.70;99.90
18456;DHT22;9357;49.900;8.208;2023-04-30T06:39:07;11.70;99.90
18456;DHT22;9357;49.900;8.208;2023-04-30T06:40:40;11.80;99.90
18456;DHT22;9357;49.900;8.208;2023-04-30T06:42:13;11.80;99.90
18456;DHT22;9357;49.900;8.208;2023-04-30T06:43:46;11.80;99.90
18456;DHT22;9357;49.900;8.208;2023-04-30T06:45:18;11.90;99.90
18456;DHT22;9357;49.900;8.208;2023-04-30T06:46:50;12.00;99.90
18456;DHT22;9357;49.900;8.208;2023-04-30T06:48:23;12.10;99.90
18456;DHT22;9357;49.900;8.208;2023-04-30T06:49:56;12.10;99.90
18456;DHT22;9357;49.900;8.208;2023-04-30T06:51:29;12.10;99.90
18456;DHT22;9357;49.900;8.208;2023-04-30T06:53:03;12.10;99.90
18456;DHT22;9357;49.900;8.208;2023-04-30T06:54:36;12.20;99.90
18456;DHT22;9357;49.900;8.208;2023-04-30T06:56:08;12.20;99.90
18456;DHT22;9357;49.900;8.208;2023-04-30T06:57:41;12.30;99.90
18456;DHT22;9357;49.900;8.208;2023-04-30T06:59:14;12.40;99.90
18456;DHT22;9357;49.900;8.208;2023-04-30T07:00:47;12.50;99.90
18456;DHT22;9357;49.900;8.208;2023-04-30T07:02:19;12.60;99.90
18456;DHT22;9357;49.900;8.208;2023-04-30T07:03:52;12.80;99.90
18456;DHT22;9357;49.900;8.208;2023-04-30T07:05:26;13.00;99.90
18456;DHT22;9357;49.900;8.208;2023-04-30T07:06:58;13.30;99.90
18456;DHT22;9357;49.900;8.208;2023-04-30T07:08:34;13.60;99.90
18456;DHT22;9357;49.900;8.208;2023-04-30T07:10:07;13.90;99.90
18456;DHT22;9357;49.900;8.208;2023-04-30T07:11:40;14.10;99.90
18456;DHT22;9357;49.900;8.208;2023-04-30T07:13:13;14.20;99.90
18456;DHT22;9357;49.900;8.208;2023-04-30T07:14:46;14.40;99.90
18456;DHT22;9357;49.900;8.208;2023-04-30T07:16:19;14.40;99.90
18456;DHT22;9357;49.900;8.208;2023-04-30T07:17:52;14.50;99.90
18456;DHT22;9357;49.900;8.208;2023-04-30T07:19:25;14.60;99.90
18456;DHT22;9357;49.900;8.208;2023-04-30T07:20:58;14.80;99.90
18456;DHT22;9357;49.900;8.208;2023-04-30T07:22:31;14.90;99.90
18456;DHT22;9357;49.900;8.208;2023-04-30T07:24:05;15.20;99.90
18456;DHT22;9357;49.900;8.208;2023-04-30T07:25:38;15.40;99.90
18456;DHT22;9357;49.900;8.208;2023-04-30T07:27:11;15.60;99.90
18456;DHT22;9357;49.900;8.208;2023-04-30T07:28:46;15.70;99.90
18456;DHT22;9357;49.900;8.208;2023-04-30T07:30:20;15.70;99.90
18456;DHT22;9357;49.900;8.208;2023-04-30T07:31:55;15.70;99.90
18456;DHT22;9357;49.900;8.208;2023-04-30T07:33:28;15.80;99.90
18456;DHT22;9357;49.900;8.208;2023-04-30T07:35:01;15.90;99.90
18456;DHT22;9357;49.900;8.208;2023-04-30T07:36:34;16.00;99.90
18456;DHT22;9357;49.900;8.208;2023-04-30T07:38:09;16.10;99.90
18456;DHT22;9357;49.900;8.208;2023-04-30T07:39:43;16.20;99.90
18456;DHT22;9357;49.900;8.208;2023-04-30T07:41:15;16.30;99.90
18456;DHT22;9357;49.900;8.208;2023-04-30T07:42:48;16.40;99.90
18456;DHT22;9357;49.900;8.208;2023-04-30T07:44:21;16.50;99.90
18456;DHT22;9357;49.900;8.208;2023-04-30T07:45:54;16.70;99.90
18456;DHT22;9357;49.900;8.208;2023-04-30T07:47:26;16.70;99.90
18456;DHT22;9357;49.900;8.208;2023-04-30T07:48:59;16.70;99.90
18456;DHT22;9357;49.900;8.208;2023-04-30T07:50:32;16.60;99.90
18456;DHT22;9357;49.900;8.208;2023-04-30T07:52:05;16.70;99.90
18456;DHT22;9357;49.900;8.208;2023-04-30T07:53:41;16.90;99.90
18456;DHT22;9357;49.900;8.208;2023-04-30T07:55:15;16.90;99.90
18456;DHT22;9357;49.900;8.208;2023-04-30T07:56:48;17.00;99.90
18456;DHT22;9357;49.900;8.208;2023-04-30T07:58:21;17.20;99.90
18456;DHT22;9357;49.900;8.208;2023-04-30T07:59:53;17.30;99.90
18456;DHT22;9357;49.900;8.208;2023-04-30T08:01:27;17.40;99.90
18456;DHT22;9357;49.900;8.208;2023-04-30T08:02:59;17.50;99.90
18456;DHT22;9357;49.900;8.208;2023-04-30T08:04:32;17.60;99.90
18456;DHT22;9357;49.900;8.208;2023-04-30T08:06:05;17.60;99.90
18456;DHT22;9357;49.900;8.208;2023-04-30T08:07:38;17.70;99.90
18456;DHT22;9357;49.900;8.208;2023-04-30T08:09:11;17.70;99.90
18456;DHT22;9357;49.900;8.208;2023-04-30T08:10:47;17.80;99.90
18456;DHT22;9357;49.900;8.208;2023-04-30T08:12:20;18.00;99.90
18456;DHT22;9357;49.900;8.208;2023-04-30T08:13:52;18.20;99.90
18456;DHT22;9357;49.900;8.208;2023-04-30T08:15:26;18.30;99.90
18456;DHT22;9357;49.900;8.208;2023-04-30T08:17:00;18.40;99.90
18456;DHT22;9357;49.900;8.208;2023-04-30T08:18:33;18.30;99.90
18456;DHT22;9357;49.900;8.208;2023-04-30T08:20:09;18.20;99.90
18456;DHT22;9357;49.900;8.208;2023-04-30T08:21:42;18.20;99.90
18456;DHT22;9357;49.900;8.208;2023-04-30T08:23:15;18.20;99.90
18456;DHT22;9357;49.900;8.208;2023-04-30T08:24:48;18.30;99.90
18456;DHT22;9357;49.900;8.208;2023-04-30T08:26:23;18.50;99.90
18456;DHT22;9357;49.900;8.208;2023-04-30T08:27:56;18.50;99.90
18456;DHT22;9357;49.900;8.208;2023-04-30T08:29:29;18.50;99.90
18456;DHT22;9357;49.900;8.208;2023-04-30T08:31:02;18.60;99.90
18456;DHT22;9357;49.900;8.208;2023-04-30T08:32:35;18.70;99.90
18456;DHT22;9357;49.900;8.208;2023-04-30T08:34:08;18.70;99.90
18456;DHT22;9357;49.900;8.208;2023-04-30T08:35:41;18.80;99.90
18456;DHT22;9357;49.900;8.208;2023-04-30T08:37:15;18.90;99.90
18456;DHT22;9357;49.900;8.208;2023-04-30T08:38:48;18.80;99.90
18456;DHT22;9357;49.900;8.208;2023-04-30T08:40:20;18.80;99.90
18456;DHT22;9357;49.900;8.208;2023-04-30T08:42:16;18.90;99.90
18456;DHT22;9357;49.900;8.208;2023-04-30T08:43:51;19.00;99.90
18456;DHT22;9357;49.900;8.208;2023-04-30T08:45:25;19.20;99.90
18456;DHT22;9357;49.900;8.208;2023-04-30T08:46:59;19.30;99.90
18456;DHT22;9357;49.900;8.208;2023-04-30T08:48:33;19.40;99.90
18456;DHT22;9357;49.900;8.208;2023-04-30T08:50:07;19.60;99.90
18456;DHT22;9357;49.900;8.208;2023-04-30T08:51:40;19.70;99.90
18456;DHT22;9357;49.900;8.208;2023-04-30T08:53:13;19.90;99.90
18456;DHT22;9357;49.900;8.208;2023-04-30T08:54:49;20.10;99.90
18456;DHT22;9357;49.900;8.208;2023-04-30T08:56:25;20.30;99.90
18456;DHT22;9357;49.900;8.208;2023-04-30T08:57:59;20.50;99.90
18456;DHT22;9357;49.900;8.208;2023-04-30T08:59:32;20.50;99.90
18456;DHT22;9357;49.900;8.208;2023-04-30T09:01:06;20.40;99.90
18456;DHT22;9357;49.900;8.208;2023-04-30T09:02:40;20.40;99.90
18456;DHT22;9357;49.900;8.208;2023-04-30T09:04:13;20.40;99.90
18456;DHT22;9357;49.900;8.208;2023-04-30T09:05:46;20.30;99.90
18456;DHT22;9357;49.900;8.208;2023-04-30T09:07:19;20.20;99.90
18456;DHT22;9357;49.900;8.208;2023-04-30T09:08:56;20.10;99.90
18456;DHT22;9357;49.900;8.208;2023-04-30T09:10:31;20.00;99.90
18456;DHT22;9357;49.900;8.208;2023-04-30T09:12:15;20.00;99.90
18456;DHT22;9357;49.900;8.208;2023-04-30T09:13:53;20.10;99.90
18456;DHT22;9357;49.900;8.208;2023-04-30T09:15:26;20.20;99.90
18456;DHT22;9357;49.900;8.208;2023-04-30T09:17:03;20.30;99.90
18456;DHT22;9357;49.900;8.208;2023-04-30T09:18:38;20.50;99.90
18456;DHT22;9357;49.900;8.208;2023-04-30T09:20:12;20.50;99.90
18456;DHT22;9357;49.900;8.208;2023-04-30T09:21:45;20.40;99.90
18456;DHT22;9357;49.900;8.208;2023-04-30T09:23:18;20.50;99.90
18456;DHT22;9357;49.900;8.208;2023-04-30T09:24:51;20.60;99.90
18456;DHT22;9357;49.900;8.208;2023-04-30T09:26:30;20.60;99.90
18456;DHT22;9357;49.900;8.208;2023-04-30T09:28:07;20.60;99.90
18456;DHT22;9357;49.900;8.208;2023-04-30T09:29:42;20.50;99.90
18456;DHT22;9357;49.900;8.208;2023-04-30T09:31:18;20.40;99.90
18456;DHT22;9357;49.900;8.208;2023-04-30T09:32:54;20.30;99.90
18456;DHT22;9357;49.900;8.208;2023-04-30T09:34:32;20.30;99.90
18456;DHT22;9357;49.900;8.208;2023-04-30T09:36:08;20.20;99.90
18456;DHT22;9357;49.900;8.208;2023-04-30T09:37:41;20.20;99.90
18456;DHT22;9357;49.900;8.208;2023-04-30T09:39:14;20.20;99.90
18456;DHT22;9357;49.900;8.208;2023-04-30T09:40:48;20.20;99.90
18456;DHT22;9357;49.900;8.208;2023-04-30T09:42:21;20.10;99.90
18456;DHT22;9357;49.900;8.208;2023-04-30T09:43:54;19.90;99.90
18456;DHT22;9357;49.900;8.208;2023-04-30T09:45:38;19.80;99.90
18456;DHT22;9357;49.900;8.208;2023-04-30T09:47:11;19.80;99.90
18456;DHT22;9357;49.900;8.208;2023-04-30T09:48:45;19.80;99.90
18456;DHT22;9357;49.900;8.208;2023-04-30T09:50:19;19.80;99.90
18456;DHT22;9357;49.900;8.208;2023-04-30T09:51:53;19.90;99.90
18456;DHT22;9357;49.900;8.208;2023-04-30T09:53:26;20.10;99.90
18456;DHT22;9357;49.900;8.208;2023-04-30T09:54:59;20.20;99.90
18456;DHT22;9357;49.900;8.208;2023-04-30T09:56:34;20.30;99.90
18456;DHT22;9357;49.900;8.208;2023-04-30T09:58:10;20.30;99.90
18456;DHT22;9357;49.900;8.208;2023-04-30T09:59:44;20.30;99.90
18456;DHT22;9357;49.900;8.208;2023-04-30T10:01:19;20.40;99.90
18456;DHT22;9357;49.900;8.208;2023-04-30T10:02:53;20.30;99.90